Terminal Aerodrome Forecast
Issued by NWS

Home | Current Version | Previous Version | Text Only | Print | Product List | Glossary On
Versions: 1 2 3 4 5 6 7 8 9 10 11 12 13 14
000
FTUS42 TJSJ 231700
TAFJMZ
TAF
TJMZ 231732Z 2318/2418 23004KT P6SM VCTS BKN025CB OVC040
      TEMPO 2318/2321 VRB12G20KT 2SM +TSRA OVC025CB
     FM232300 07004KT P6SM SCT030 SCT060 SCT120
     FM241530 04010KT P6SM SCT025 BKN040
      AMD NOT SKED 2323/2412=

USA.gov is the U.S. government's official web portal to all federal, state and local government web resources and services.